Time;durP1;ratioP1;P1;durP2;ratioP2;P2;SDS_P1;SDS_P2;PMS_P1;PMS_P2;Temp;Humidity;BMP_temperature;BMP_pressure;BME280_temperature;BME280_humidity;BME280_pressure;Samples;Min_cycle;Max_cycle;Signal;HPM_P1;HPM_P2
2023/03/17 00:04:42;;;;;;;46.20;17.10;;;;;;;;;;109676;1276;22591;-72
2023/03/17 00:07:14;;;;;;;45.80;17.30;;;;;;;;;;110105;1280;21952;-72
2023/03/17 00:09:41;;;;;;;43.30;15.30;;;;;;;;;;110113;1280;22177;-72
2023/03/17 00:12:11;;;;;;;32.00;13.30;;;;;;;;;;110052;1280;22274;-72
2023/03/17 00:14:39;;;;;;;37.80;13.10;;;;;;;;;;110208;1256;22175;-72
2023/03/17 00:17:08;;;;;;;34.30;13.20;;;;;;;;;;110153;1279;22789;-72
2023/03/17 00:19:57;;;;;;;32.90;12.10;;;;;;;;;;110242;1279;22133;-72
2023/03/17 00:22:24;;;;;;;33.00;12.30;;;;;;;;;;110132;1279;22113;-73
2023/03/17 00:24:51;;;;;;;35.20;12.70;;;;;;;;;;110526;1256;22182;-72
2023/03/17 00:27:19;;;;;;;32.90;13.30;;;;;;;;;;110258;1279;22167;-72
2023/03/17 00:29:50;;;;;;;36.20;13.20;;;;;;;;;;110161;1279;22117;-72
2023/03/17 00:32:28;;;;;;;35.80;12.60;;;;;;;;;;110068;1279;22102;-72
2023/03/17 00:42:54;;;;;;;28.30;10.30;;;;;;;;;;109792;1287;22134;-72
2023/03/17 00:49:16;;;;;;;29.40;10.30;;;;;;;;;;109797;1287;22100;-72
2023/03/17 00:51:45;;;;;;;28.90;10.70;;;;;;;;;;109732;1285;22184;-72
2023/03/17 01:01:38;;;;;;;28.90;11.40;;;;;;;;;;109104;1294;22095;-73
2023/03/17 01:04:08;;;;;;;30.10;11.50;;;;;;;;;;108864;1294;21943;-73
2023/03/17 01:06:37;;;;;;;33.60;11.50;;;;;;;;;;109654;1273;22165;-72
2023/03/17 01:09:05;;;;;;;29.50;11.30;;;;;;;;;;109015;1294;22958;-72
2023/03/17 01:11:32;;;;;;;33.70;11.90;;;;;;;;;;108970;1294;22797;-72
2023/03/17 01:14:00;;;;;;;30.70;11.70;;;;;;;;;;109158;1294;22193;-72
2023/03/17 01:16:29;;;;;;;32.60;11.10;;;;;;;;;;109473;1276;22152;-72
2023/03/17 01:18:57;;;;;;;32.20;10.80;;;;;;;;;;109783;1287;22027;-72
2023/03/17 01:21:24;;;;;;;32.40;11.20;;;;;;;;;;109778;1287;22213;-72
2023/03/17 01:23:52;;;;;;;30.10;12.40;;;;;;;;;;109757;1287;22621;-72
2023/03/17 01:26:19;;;;;;;30.30;11.50;;;;;;;;;;109906;1265;22162;-72
2023/03/17 01:29:07;;;;;;;27.60;9.70;;;;;;;;;;109726;1287;21862;-73
2023/03/17 01:31:35;;;;;;;32.60;11.30;;;;;;;;;;109764;1287;22157;-72
2023/03/17 01:34:35;;;;;;;;;;;;;;;;;;;;;
2023/03/17 01:37:36;;;;;;;28.20;9.30;;;;;;;;;;110050;1265;22105;-74
2023/03/17 01:40:06;;;;;;;26.30;9.30;;;;;;;;;;109992;1281;22103;-72
2023/03/17 01:42:34;;;;;;;24.70;10.00;;;;;;;;;;110030;1281;22111;-72
2023/03/17 01:45:04;;;;;;;24.10;9.50;;;;;;;;;;110090;1281;22125;-72
2023/03/17 01:47:33;;;;;;;22.30;8.40;;;;;;;;;;110358;1263;22135;-72
2023/03/17 01:50:05;;;;;;;21.50;8.20;;;;;;;;;;110096;1280;22091;-72
2023/03/17 01:52:38;;;;;;;20.40;8.20;;;;;;;;;;110077;1280;22091;-72
2023/03/17 01:55:15;;;;;;;19.70;7.20;;;;;;;;;;110051;1280;22093;-72
2023/03/17 01:57:53;;;;;;;23.30;7.20;;;;;;;;;;110286;1260;22087;-73
2023/03/17 02:00:23;;;;;;;20.10;6.70;;;;;;;;;;110151;1280;22476;-72
2023/03/17 02:02:55;;;;;;;17.60;6.40;;;;;;;;;;110070;1280;22107;-72
2023/03/17 02:05:26;;;;;;;17.50;5.80;;;;;;;;;;110152;1280;22123;-72
2023/03/17 02:07:58;;;;;;;17.10;6.20;;;;;;;;;;110062;1263;22119;-72
2023/03/17 02:10:29;;;;;;;19.50;5.70;;;;;;;;;;110174;1275;22121;-72
2023/03/17 02:13:02;;;;;;;18.40;5.50;;;;;;;;;;110025;1280;22865;-72
2023/03/17 02:15:39;;;;;;;15.20;5.40;;;;;;;;;;110074;1280;22124;-72
2023/03/17 02:18:10;;;;;;;15.80;5.70;;;;;;;;;;110427;1259;22440;-72
2023/03/17 02:20:59;;;;;;;14.80;5.60;;;;;;;;;;110058;1280;22813;-72
2023/03/17 02:23:29;;;;;;;14.40;5.00;;;;;;;;;;110118;1278;22096;-72
2023/03/17 02:25:58;;;;;;;16.60;5.60;;;;;;;;;;110071;1280;22963;-72
2023/03/17 02:28:30;;;;;;;17.50;5.30;;;;;;;;;;110416;1259;23027;-72
2023/03/17 02:30:59;;;;;;;15.10;5.30;;;;;;;;;;110001;1280;22128;-72
2023/03/17 02:33:28;;;;;;;15.80;5.30;;;;;;;;;;110044;1281;22103;-72
2023/03/17 02:35:58;;;;;;;15.90;5.80;;;;;;;;;;110016;1281;22190;-72
2023/03/17 02:38:27;;;;;;;15.70;5.10;;;;;;;;;;110107;1264;22100;-72
2023/03/17 02:40:59;;;;;;;13.60;5.40;;;;;;;;;;110081;1280;22183;-72
2023/03/17 02:50:35;;;;;;;18.20;5.50;;;;;;;;;;104108;1300;544731;-79
2023/03/17 02:53:24;;;;;;;14.80;4.80;;;;;;;;;;106891;1276;22526;-73
2023/03/17 02:55:55;;;;;;;11.60;4.20;;;;;;;;;;106870;1276;25364;-73
2023/03/17 02:58:34;;;;;;;11.90;4.10;;;;;;;;;;107019;1276;22494;-73
2023/03/17 03:01:25;;;;;;;12.70;4.10;;;;;;;;;;106863;1276;22540;-74
2023/03/17 03:04:06;;;;;;;14.10;4.00;;;;;;;;;;103339;1275;4863943;-74
2023/03/17 03:06:36;;;;;;;10.60;3.60;;;;;;;;;;107118;1275;22529;-73
2023/03/17 03:09:03;;;;;;;11.70;4.00;;;;;;;;;;107107;1275;24236;-79
2023/03/17 03:12:00;;;;;;;9.40;3.70;;;;;;;;;;107073;1266;22729;-78
2023/03/17 03:14:47;;;;;;;;;;;;;;;;;;;;;
2023/03/17 03:17:38;;;;;;;11.10;3.20;;;;;;;;;;107141;1274;22482;-76
2023/03/17 03:20:28;;;;;;;10.90;3.00;;;;;;;;;;107121;1274;22599;-78
2023/03/17 03:23:00;;;;;;;11.00;3.20;;;;;;;;;;107099;1275;22594;-78
2023/03/17 03:25:58;;;;;;;;;;;;;;;;;;;;;
2023/03/17 03:28:44;;;;;;;11.90;2.90;;;;;;;;;;106877;1275;25456;-76
2023/03/17 03:31:34;;;;;;;11.00;3.20;;;;;;;;;;107110;1256;25304;-73
2023/03/17 03:34:31;;;;;;;;;;;;;;;;;;;;;
2023/03/17 03:37:11;;;;;;;9.50;2.60;;;;;;;;;;107128;1274;22527;-78
2023/03/17 03:40:02;;;;;;;10.10;2.80;;;;;;;;;;107121;1274;22541;-78
2023/03/17 03:42:28;;;;;;;10.10;2.60;;;;;;;;;;107026;1258;22534;-78
2023/03/17 03:45:05;;;;;;;;;;;;;;;;;;;;;
2023/03/17 03:48:12;;;;;;;12.40;2.70;;;;;;;;;;106991;1276;25350;-74
2023/03/17 03:51:06;;;;;;;9.70;2.40;;;;;;;;;;106856;1276;26557;-75
2023/03/17 03:54:02;;;;;;;;;;;;;;;;;;;;;
2023/03/17 03:56:30;;;;;;;10.90;2.30;;;;;;;;;;106886;1276;22536;-75
2023/03/17 03:59:06;;;;;;;10.60;2.30;;;;;;;;;;106874;1276;25467;-75
2023/03/17 04:01:46;;;;;;;;;;;;;;;;;;;;;
2023/03/17 04:04:37;;;;;;;10.00;2.30;;;;;;;;;;106876;1276;23122;-77
2023/03/17 04:07:12;;;;;;;14.10;2.50;;;;;;;;;;107028;1276;22522;-75
2023/03/17 04:10:22;;;;;;;9.20;2.40;;;;;;;;;;106892;1276;23899;-74
2023/03/17 04:12:58;;;;;;;9.70;2.30;;;;;;;;;;106967;1258;22633;-74
2023/03/17 04:15:55;;;;;;;;;;;;;;;;;;;;;
2023/03/17 04:19:02;;;;;;;8.70;2.10;;;;;;;;;;106951;1276;25319;-74
2023/03/17 04:21:42;;;;;;;10.40;2.20;;;;;;;;;;106834;1261;25522;-75
2023/03/17 04:24:32;;;;;;;8.90;2.10;;;;;;;;;;106786;1276;22532;-74
2023/03/17 04:26:59;;;;;;;9.60;2.80;;;;;;;;;;106763;1276;24107;-72
2023/03/17 04:29:37;;;;;;;10.80;2.10;;;;;;;;;;106501;1276;25503;-73
2023/03/17 04:32:05;;;;;;;11.00;2.40;;;;;;;;;;106795;1258;22534;-77
2023/03/17 04:34:32;;;;;;;11.90;2.10;;;;;;;;;;106791;1277;22999;-79
2023/03/17 04:37:02;;;;;;;10.70;2.90;;;;;;;;;;106848;1277;22947;-74
2023/03/17 04:39:54;;;;;;;10.80;2.70;;;;;;;;;;106828;1277;22530;-75
2023/03/17 04:43:01;;;;;;;11.90;2.40;;;;;;;;;;106850;1276;22532;-75
2023/03/17 04:45:34;;;;;;;10.10;2.20;;;;;;;;;;106862;1276;22523;-75
2023/03/17 04:48:10;;;;;;;9.20;2.10;;;;;;;;;;106890;1276;24241;-74
2023/03/17 04:50:57;;;;;;;9.30;2.40;;;;;;;;;;106846;1276;22525;-74
2023/03/17 04:53:27;;;;;;;9.20;2.30;;;;;;;;;;106863;1257;24310;-78
2023/03/17 04:55:55;;;;;;;10.60;2.30;;;;;;;;;;106841;1277;25442;-79
2023/03/17 04:58:24;;;;;;;11.10;2.60;;;;;;;;;;106858;1277;24358;-74
2023/03/17 05:01:43;;;;;;;10.40;2.40;;;;;;;;;;106885;1277;22523;-74
2023/03/17 05:03:57;;;;;;;9.80;2.10;;;;;;;;;;106843;1276;22525;-72
2023/03/17 05:06:57;;;;;;;8.30;2.20;;;;;;;;;;106874;1276;22533;-78
2023/03/17 05:09:33;;;;;;;7.20;2.20;;;;;;;;;;106859;1276;22552;-73
2023/03/17 05:12:03;;;;;;;12.70;2.40;;;;;;;;;;106878;1276;24241;-74
2023/03/17 05:14:32;;;;;;;8.60;2.10;;;;;;;;;;106802;1260;22486;-78
2023/03/17 05:17:06;;;;;;;7.70;2.10;;;;;;;;;;106867;1277;25347;-73
2023/03/17 05:19:33;;;;;;;8.70;2.10;;;;;;;;;;106847;1277;22649;-74
2023/03/17 05:22:23;;;;;;;7.80;2.20;;;;;;;;;;106830;1277;24221;-75
2023/03/17 05:25:05;;;;;;;9.40;2.70;;;;;;;;;;106768;1276;25350;-75
2023/03/17 05:27:55;;;;;;;11.30;3.10;;;;;;;;;;106886;1276;24254;-75
2023/03/17 05:31:11;;;;;;;13.50;4.10;;;;;;;;;;106798;1276;22763;-77
2023/03/17 05:33:51;;;;;;;;;;;;;;;;;;;;;
2023/03/17 05:36:25;;;;;;;11.90;2.90;;;;;;;;;;106858;1277;23130;-78
2023/03/17 05:39:01;;;;;;;13.60;3.60;;;;;;;;;;106838;1277;22578;-73
2023/03/17 05:41:28;;;;;;;14.30;3.70;;;;;;;;;;106850;1277;22490;-78
2023/03/17 05:44:03;;;;;;;11.30;3.30;;;;;;;;;;106860;1261;22520;-76
2023/03/17 05:46:50;;;;;;;11.20;3.00;;;;;;;;;;106879;1276;22539;-78
2023/03/17 05:49:33;;;;;;;;;;;;;;;;;;;;;
2023/03/17 05:52:28;;;;;;;11.90;3.20;;;;;;;;;;106866;1276;22526;-78
2023/03/17 05:55:48;;;;;;;10.70;3.10;;;;;;;;;;106834;1260;22524;-75
2023/03/17 05:58:20;;;;;;;12.00;3.00;;;;;;;;;;106928;1276;22527;-79
2023/03/17 06:00:52;;;;;;;15.00;3.30;;;;;;;;;;106890;1276;25275;-73
2023/03/17 06:04:01;;;;;;;12.70;3.60;;;;;;;;;;106790;1276;25315;-72
2023/03/17 06:06:27;;;;;;;11.60;3.60;;;;;;;;;;106763;1259;22516;-78
2023/03/17 06:08:56;;;;;;;11.80;3.50;;;;;;;;;;106943;1276;24237;-73
2023/03/17 06:11:23;;;;;;;11.50;3.20;;;;;;;;;;106809;1275;22529;-75
2023/03/17 06:13:50;;;;;;;11.50;2.90;;;;;;;;;;106840;1277;22530;-75
2023/03/17 06:16:21;;;;;;;11.10;2.70;;;;;;;;;;106881;1269;22650;-74
2023/03/17 06:18:57;;;;;;;10.00;2.50;;;;;;;;;;106910;1270;22531;-74
2023/03/17 06:21:34;;;;;;;10.40;2.90;;;;;;;;;;106932;1269;25349;-75
2023/03/17 06:24:05;;;;;;;12.20;3.40;;;;;;;;;;106888;1273;22544;-73
2023/03/17 06:26:35;;;;;;;12.60;3.10;;;;;;;;;;106858;1259;22527;-73
2023/03/17 06:29:08;;;;;;;9.60;2.50;;;;;;;;;;106971;1278;22524;-74
2023/03/17 06:31:55;;;;;;;11.30;3.20;;;;;;;;;;106895;1277;22538;-79
2023/03/17 06:34:26;;;;;;;9.10;2.50;;;;;;;;;;106810;1277;22487;-74
2023/03/17 06:36:56;;;;;;;9.10;2.30;;;;;;;;;;106935;1256;25223;-78
2023/03/17 06:39:29;;;;;;;7.60;2.00;;;;;;;;;;106877;1276;22519;-75
2023/03/17 06:42:16;;;;;;;8.00;2.50;;;;;;;;;;106871;1276;25319;-77
2023/03/17 06:44:43;;;;;;;11.10;2.60;;;;;;;;;;106941;1276;22533;-72
2023/03/17 06:47:13;;;;;;;11.70;3.20;;;;;;;;;;106901;1259;25366;-78
2023/03/17 06:49:42;;;;;;;9.90;2.50;;;;;;;;;;106839;1277;23114;-77
2023/03/17 06:52:09;;;;;;;9.90;2.70;;;;;;;;;;106801;1277;22527;-78
2023/03/17 06:54:35;;;;;;;11.20;2.90;;;;;;;;;;106896;1277;22526;-74
2023/03/17 06:57:25;;;;;;;10.30;3.10;;;;;;;;;;106951;1258;24364;-73
2023/03/17 06:59:52;;;;;;;12.80;3.50;;;;;;;;;;106908;1276;22486;-73
2023/03/17 07:02:19;;;;;;;10.30;3.40;;;;;;;;;;106840;1276;22525;-73
2023/03/17 07:05:17;;;;;;;;;;;;;;;;;;;;;
2023/03/17 07:07:44;;;;;;;7.20;2.00;;;;;;;;;;107083;1251;24189;-78
2023/03/17 07:10:14;;;;;;;9.20;2.40;;;;;;;;;;107095;1275;22530;-72
2023/03/17 07:12:41;;;;;;;8.90;2.30;;;;;;;;;;106900;1270;22637;-75
2023/03/17 07:15:11;;;;;;;8.40;2.20;;;;;;;;;;106918;1275;22530;-72
2023/03/17 07:17:40;;;;;;;7.00;2.10;;;;;;;;;;106877;1258;22535;-79
2023/03/17 07:20:18;;;;;;;7.90;2.30;;;;;;;;;;106966;1274;23875;-74
2023/03/17 07:22:57;;;;;;;9.90;2.30;;;;;;;;;;106928;1274;22582;-76
2023/03/17 07:25:26;;;;;;;8.20;2.60;;;;;;;;;;107099;1274;22482;-75
2023/03/17 07:28:00;;;;;;;10.70;2.30;;;;;;;;;;106981;1253;22927;-80
2023/03/17 07:30:37;;;;;;;8.80;2.60;;;;;;;;;;106890;1275;25319;-75
2023/03/17 07:33:04;;;;;;;10.30;2.40;;;;;;;;;;107056;1272;22522;-75
2023/03/17 07:35:34;;;;;;;9.00;2.30;;;;;;;;;;107063;1275;24257;-77
2023/03/17 07:38:01;;;;;;;11.10;3.10;;;;;;;;;;107049;1274;24324;-73
2023/03/17 07:40:34;;;;;;;8.40;2.50;;;;;;;;;;107095;1274;22538;-76
2023/03/17 07:43:21;;;;;;;9.50;2.40;;;;;;;;;;107103;1274;22517;-75
2023/03/17 07:45:51;;;;;;;8.50;2.60;;;;;;;;;;107143;1274;22492;-74
2023/03/17 07:48:18;;;;;;;8.00;2.60;;;;;;;;;;106947;1256;24234;-74
2023/03/17 07:50:48;;;;;;;9.70;3.30;;;;;;;;;;106835;1274;22590;-73
2023/03/17 07:53:14;;;;;;;12.90;3.40;;;;;;;;;;106885;1275;22519;-76
2023/03/17 07:56:01;;;;;;;12.50;3.20;;;;;;;;;;107099;1275;22682;-80
2023/03/17 07:58:28;;;;;;;11.00;3.30;;;;;;;;;;107110;1256;25331;-74
2023/03/17 08:00:56;;;;;;;12.10;3.50;;;;;;;;;;107034;1274;25227;-75
2023/03/17 08:03:23;;;;;;;10.10;3.40;;;;;;;;;;107216;1274;22520;-75
2023/03/17 08:05:52;;;;;;;12.20;3.30;;;;;;;;;;106882;1274;24256;-73
2023/03/17 08:08:21;;;;;;;9.60;3.00;;;;;;;;;;107043;1257;22751;-78
2023/03/17 08:10:48;;;;;;;9.90;3.60;;;;;;;;;;107162;1259;25370;-74
2023/03/17 08:13:18;;;;;;;12.00;3.20;;;;;;;;;;107130;1275;24618;-75
2023/03/17 08:15:45;;;;;;;13.40;3.20;;;;;;;;;;107124;1275;23901;-77
2023/03/17 08:18:13;;;;;;;10.50;2.90;;;;;;;;;;107088;1256;24285;-75
2023/03/17 08:20:40;;;;;;;10.20;3.10;;;;;;;;;;107109;1275;25398;-77
2023/03/17 08:23:07;;;;;;;12.60;3.10;;;;;;;;;;107106;1275;22520;-74
2023/03/17 08:25:34;;;;;;;11.30;3.70;;;;;;;;;;107100;1275;25223;-76
2023/03/17 08:28:03;;;;;;;12.20;3.50;;;;;;;;;;107099;1267;22524;-78
2023/03/17 08:30:33;;;;;;;9.50;3.70;;;;;;;;;;106919;1275;24133;-80
2023/03/17 08:33:00;;;;;;;11.50;3.50;;;;;;;;;;106933;1275;25534;-77
2023/03/17 08:35:27;;;;;;;17.40;3.60;;;;;;;;;;107101;1275;22532;-80
2023/03/17 08:37:58;;;;;;;12.00;3.40;;;;;;;;;;107128;1254;22662;-77
2023/03/17 08:40:35;;;;;;;11.10;3.10;;;;;;;;;;107138;1274;22473;-80
2023/03/17 08:43:02;;;;;;;10.80;3.30;;;;;;;;;;107147;1274;22519;-74
2023/03/17 08:45:29;;;;;;;9.20;3.10;;;;;;;;;;107126;1274;22535;-80
2023/03/17 08:47:59;;;;;;;12.70;2.90;;;;;;;;;;107041;1275;22530;-77
2023/03/17 08:50:26;;;;;;;19.10;3.00;;;;;;;;;;107137;1275;22520;-77
2023/03/17 08:52:55;;;;;;;13.20;2.90;;;;;;;;;;107065;1261;23137;-74
2023/03/17 08:55:25;;;;;;;13.60;3.30;;;;;;;;;;107041;1275;25343;-75
2023/03/17 08:57:51;;;;;;;13.10;3.50;;;;;;;;;;107079;1253;25423;-75
2023/03/17 09:00:29;;;;;;;;;;;;;;;;;;;;;
2023/03/17 09:03:09;;;;;;;11.30;3.50;;;;;;;;;;107130;1274;22584;-73
2023/03/17 09:05:44;;;;;;;13.00;3.20;;;;;;;;;;107121;1274;22479;-76
2023/03/17 09:08:21;;;;;;;14.60;3.00;;;;;;;;;;107060;1251;22593;-81
2023/03/17 09:10:48;;;;;;;13.90;3.20;;;;;;;;;;107090;1275;24231;-74
2023/03/17 09:13:37;;;;;;;15.90;3.20;;;;;;;;;;107097;1275;22537;-74
2023/03/17 09:16:14;;;;;;;9.40;3.20;;;;;;;;;;107114;1275;22580;-80
2023/03/17 09:18:41;;;;;;;12.70;3.80;;;;;;;;;;107094;1255;22536;-74
2023/03/17 09:21:12;;;;;;;11.30;3.30;;;;;;;;;;106884;1274;22520;-80
2023/03/17 09:23:40;;;;;;;11.40;3.70;;;;;;;;;;107122;1274;22534;-74
2023/03/17 09:26:30;;;;;;;10.20;3.20;;;;;;;;;;107090;1274;25246;-80
2023/03/17 09:29:17;;;;;;;10.70;3.80;;;;;;;;;;107053;1256;25572;-74
2023/03/17 09:31:44;;;;;;;11.90;3.80;;;;;;;;;;107114;1275;24162;-74
2023/03/17 09:34:13;;;;;;;12.40;3.40;;;;;;;;;;107158;1275;22527;-78
2023/03/17 09:37:00;;;;;;;10.20;3.20;;;;;;;;;;107176;1275;25376;-77
2023/03/17 09:39:29;;;;;;;12.30;3.50;;;;;;;;;;107094;1274;24233;-81
2023/03/17 09:42:23;;;;;;;13.50;3.60;;;;;;;;;;106942;1274;25354;-73
2023/03/17 09:45:12;;;;;;;10.10;3.50;;;;;;;;;;106676;1270;25250;-73
2023/03/17 09:47:39;;;;;;;11.50;3.40;;;;;;;;;;106457;1281;22537;-79
2023/03/17 09:50:15;;;;;;;10.00;3.00;;;;;;;;;;106605;1262;23124;-80
2023/03/17 09:52:42;;;;;;;11.70;3.20;;;;;;;;;;106563;1281;22529;-76
2023/03/17 09:55:16;;;;;;;8.90;3.00;;;;;;;;;;106588;1281;22533;-81
2023/03/17 09:57:43;;;;;;;12.90;3.70;;;;;;;;;;106587;1281;22665;-80
2023/03/17 10:00:15;;;;;;;11.10;2.70;;;;;;;;;;106427;1264;25529;-79
2023/03/17 10:02:42;;;;;;;12.50;3.30;;;;;;;;;;106704;1281;22629;-81
2023/03/17 10:05:12;;;;;;;9.80;3.70;;;;;;;;;;106775;1281;22533;-79
2023/03/17 10:07:54;;;;;;;11.70;3.30;;;;;;;;;;106670;1281;25237;-76
2023/03/17 10:10:24;;;;;;;8.50;3.10;;;;;;;;;;106413;1265;23102;-80
2023/03/17 10:13:00;;;;;;;16.30;3.80;;;;;;;;;;106584;1281;22783;-75
2023/03/17 10:15:39;;;;;;;9.90;4.10;;;;;;;;;;106389;1281;22545;-75
2023/03/17 10:18:11;;;;;;;9.70;3.30;;;;;;;;;;106331;1281;25292;-74
2023/03/17 10:20:58;;;;;;;11.60;3.40;;;;;;;;;;106528;1259;22572;-72
2023/03/17 10:23:31;;;;;;;10.90;3.40;;;;;;;;;;106944;1274;25396;-76
2023/03/17 10:26:33;;;;;;;10.40;3.00;;;;;;;;;;107110;1274;23139;-78
2023/03/17 10:29:31;;;;;;;;;;;;;;;;;;;;;
2023/03/17 10:32:40;;;;;;;16.90;4.30;;;;;;;;;;107060;1256;24260;-79
2023/03/17 10:35:06;;;;;;;11.90;3.80;;;;;;;;;;107063;1275;22635;-75
2023/03/17 10:37:35;;;;;;;10.80;3.20;;;;;;;;;;106892;1275;25268;-78
2023/03/17 10:40:09;;;;;;;8.90;3.30;;;;;;;;;;106900;1274;22549;-78
2023/03/17 10:42:46;;;;;;;9.10;3.20;;;;;;;;;;106868;1274;24354;-80
2023/03/17 10:45:24;;;;;;;10.00;3.20;;;;;;;;;;106916;1274;25269;-74
2023/03/17 10:47:54;;;;;;;8.40;3.40;;;;;;;;;;107120;1274;24250;-74
2023/03/17 10:50:27;;;;;;;9.40;3.40;;;;;;;;;;106912;1254;24743;-81
2023/03/17 10:52:59;;;;;;;12.10;4.60;;;;;;;;;;106931;1275;24223;-73
2023/03/17 10:55:39;;;;;;;10.90;3.80;;;;;;;;;;107129;1275;22533;-80
2023/03/17 10:58:12;;;;;;;12.90;3.10;;;;;;;;;;107245;1275;22612;-78
2023/03/17 11:00:49;;;;;;;9.90;3.20;;;;;;;;;;107080;1251;24173;-78
2023/03/17 11:03:21;;;;;;;10.40;3.30;;;;;;;;;;107174;1274;24399;-73
2023/03/17 11:06:09;;;;;;;11.20;3.90;;;;;;;;;;107088;1274;24422;-76
2023/03/17 11:08:40;;;;;;;15.00;4.10;;;;;;;;;;107144;1274;24177;-76
2023/03/17 11:11:09;;;;;;;10.30;3.10;;;;;;;;;;107145;1256;25245;-76
2023/03/17 11:13:36;;;;;;;9.40;3.40;;;;;;;;;;106889;1275;22523;-80
2023/03/17 11:16:09;;;;;;;10.50;3.80;;;;;;;;;;106854;1275;22536;-73
2023/03/17 11:18:37;;;;;;;10.10;4.30;;;;;;;;;;106914;1275;25405;-75
2023/03/17 11:21:14;;;;;;;12.80;3.90;;;;;;;;;;107127;1251;25249;-76
2023/03/17 11:24:17;;;;;;;11.50;3.50;;;;;;;;;;107135;1274;23060;-76
2023/03/17 11:26:46;;;;;;;14.20;3.50;;;;;;;;;;106563;1281;22526;-75
2023/03/17 11:29:34;;;;;;;9.70;3.20;;;;;;;;;;106535;1281;22551;-72
2023/03/17 11:32:04;;;;;;;10.30;3.30;;;;;;;;;;106335;1280;24173;-73
2023/03/17 11:34:32;;;;;;;10.50;4.30;;;;;;;;;;106360;1281;23250;-77
2023/03/17 11:37:18;;;;;;;11.70;3.80;;;;;;;;;;106668;1281;25367;-74
2023/03/17 11:40:08;;;;;;;10.60;3.10;;;;;;;;;;106625;1281;22831;-77
2023/03/17 11:42:50;;;;;;;12.90;3.40;;;;;;;;;;106651;1262;24235;-80
2023/03/17 11:45:27;;;;;;;12.10;3.90;;;;;;;;;;106695;1281;22528;-77
2023/03/17 11:47:57;;;;;;;8.40;3.60;;;;;;;;;;106682;1281;24299;-75
2023/03/17 11:50:26;;;;;;;8.60;3.10;;;;;;;;;;106692;1281;22642;-80
2023/03/17 11:53:13;;;;;;;10.50;3.00;;;;;;;;;;106605;1262;22536;-76
2023/03/17 11:55:53;;;;;;;11.10;3.00;;;;;;;;;;106585;1281;25258;-75
2023/03/17 11:58:26;;;;;;;10.00;3.30;;;;;;;;;;106697;1281;22923;-80
2023/03/17 12:00:57;;;;;;;10.30;2.90;;;;;;;;;;106876;1274;23798;-76
2023/03/17 12:03:33;;;;;;;8.00;2.90;;;;;;;;;;107046;1256;25373;-79
2023/03/17 12:06:06;;;;;;;9.00;3.20;;;;;;;;;;107052;1275;24364;-78
2023/03/17 12:08:45;;;;;;;11.50;3.50;;;;;;;;;;107137;1275;22479;-79
2023/03/17 12:11:14;;;;;;;10.50;3.10;;;;;;;;;;107076;1275;22523;-80
2023/03/17 12:13:45;;;;;;;11.20;3.50;;;;;;;;;;107054;1256;22642;-80
2023/03/17 12:16:17;;;;;;;8.60;3.00;;;;;;;;;;107140;1275;25520;-80
2023/03/17 12:19:08;;;;;;;7.90;2.70;;;;;;;;;;107028;1275;25475;-77
2023/03/17 12:21:59;;;;;;;10.90;3.30;;;;;;;;;;107052;1275;24209;-78
2023/03/17 12:24:33;;;;;;;13.70;4.10;;;;;;;;;;107048;1275;25421;-75
2023/03/17 12:27:08;;;;;;;11.20;3.60;;;;;;;;;;107185;1275;22521;-75
2023/03/17 12:29:42;;;;;;;6.90;2.70;;;;;;;;;;107118;1275;26624;-80
2023/03/17 12:32:17;;;;;;;12.10;4.40;;;;;;;;;;107100;1275;25318;-76
2023/03/17 12:34:50;;;;;;;15.80;4.70;;;;;;;;;;107046;1268;25182;-78
2023/03/17 12:37:18;;;;;;;13.50;4.00;;;;;;;;;;107072;1275;22517;-74
2023/03/17 12:39:54;;;;;;;11.60;4.30;;;;;;;;;;107257;1274;25738;-77
2023/03/17 12:42:21;;;;;;;11.50;3.90;;;;;;;;;;107182;1267;22539;-76
2023/03/17 12:45:03;;;;;;;16.40;4.50;;;;;;;;;;107133;1266;24354;-76
2023/03/17 12:47:49;;;;;;;10.50;4.30;;;;;;;;;;107146;1267;22514;-78
2023/03/17 12:50:16;;;;;;;10.90;4.80;;;;;;;;;;107141;1266;22531;-75
2023/03/17 12:53:02;;;;;;;12.60;4.30;;;;;;;;;;107150;1267;22523;-75
2023/03/17 12:55:31;;;;;;;18.90;4.70;;;;;;;;;;107195;1256;22527;-79
2023/03/17 12:58:00;;;;;;;13.20;4.60;;;;;;;;;;107100;1272;22618;-77
2023/03/17 13:00:30;;;;;;;19.50;4.80;;;;;;;;;;106890;1269;22479;-75
2023/03/17 13:03:12;;;;;;;11.30;4.00;;;;;;;;;;107027;1269;22520;-76
2023/03/17 13:05:44;;;;;;;10.90;4.10;;;;;;;;;;107039;1258;22535;-78
2023/03/17 13:08:14;;;;;;;13.20;3.70;;;;;;;;;;107128;1267;22520;-80
2023/03/17 13:10:43;;;;;;;8.00;3.50;;;;;;;;;;106912;1275;25290;-78
2023/03/17 13:13:34;;;;;;;9.90;3.90;;;;;;;;;;107117;1275;25271;-78
2023/03/17 13:16:04;;;;;;;9.80;3.20;;;;;;;;;;107155;1254;24634;-76
2023/03/17 13:18:35;;;;;;;9.80;3.50;;;;;;;;;;107147;1263;22598;-76
2023/03/17 13:21:03;;;;;;;10.00;4.00;;;;;;;;;;107134;1272;24363;-74
2023/03/17 13:23:36;;;;;;;12.80;4.10;;;;;;;;;;107179;1274;22645;-81
2023/03/17 13:26:03;;;;;;;13.90;4.00;;;;;;;;;;107152;1253;22480;-74
2023/03/17 13:28:33;;;;;;;12.60;4.20;;;;;;;;;;107004;1270;24209;-77
2023/03/17 13:31:08;;;;;;;8.30;3.70;;;;;;;;;;107093;1266;22523;-79
2023/03/17 13:33:44;;;;;;;11.20;3.80;;;;;;;;;;107288;1266;22646;-74
2023/03/17 13:36:11;;;;;;;11.20;3.90;;;;;;;;;;107048;1256;26496;-77
2023/03/17 13:38:57;;;;;;;14.20;4.40;;;;;;;;;;107148;1266;25272;-77
2023/03/17 13:41:33;;;;;;;12.50;4.20;;;;;;;;;;110583;1269;22458;-74
2023/03/17 13:44:21;;;;;;;14.60;4.70;;;;;;;;;;110575;1272;22120;-74
2023/03/17 13:46:48;;;;;;;11.50;4.10;;;;;;;;;;110757;1257;21991;-75
2023/03/17 13:49:18;;;;;;;13.20;4.80;;;;;;;;;;110605;1275;22239;-76
2023/03/17 13:52:09;;;;;;;10.20;4.10;;;;;;;;;;110598;1275;22837;-75
2023/03/17 13:54:58;;;;;;;13.60;4.60;;;;;;;;;;110576;1275;22376;-74
2023/03/17 13:57:25;;;;;;;10.90;4.90;;;;;;;;;;110625;1262;22195;-76
2023/03/17 14:00:21;;;;;;;13.10;4.30;;;;;;;;;;110604;1275;22169;-75
2023/03/17 14:02:51;;;;;;;13.00;4.40;;;;;;;;;;110482;1275;22326;-76
2023/03/17 14:05:27;;;;;;;15.10;4.70;;;;;;;;;;110464;1253;22159;-74
2023/03/17 14:07:59;;;;;;;14.30;5.00;;;;;;;;;;110495;1275;22118;-73
2023/03/17 14:10:28;;;;;;;18.60;7.30;;;;;;;;;;110353;1275;22942;-74
2023/03/17 14:13:07;;;;;;;14.60;6.50;;;;;;;;;;110635;1275;22249;-74
2023/03/17 14:27:15;;;;;;;16.60;6.90;;;;;;;;;;104314;1285;550766;-74
2023/03/17 14:29:42;;;;;;;16.60;5.70;;;;;;;;;;104366;1280;2363586;-75
2023/03/17 14:32:12;;;;;;;14.70;6.20;;;;;;;;;;106825;1276;24196;-76
2023/03/17 14:34:47;;;;;;;15.50;6.60;;;;;;;;;;106796;1276;22994;-77
2023/03/17 14:37:14;;;;;;;16.60;6.00;;;;;;;;;;106939;1277;22522;-79
2023/03/17 14:39:45;;;;;;;21.10;5.90;;;;;;;;;;106831;1277;25325;-76
2023/03/17 14:42:12;;;;;;;14.10;4.80;;;;;;;;;;106857;1278;22527;-81
2023/03/17 14:44:40;;;;;;;12.00;4.40;;;;;;;;;;106856;1277;24196;-75
2023/03/17 14:47:24;;;;;;;12.60;4.90;;;;;;;;;;106800;1267;22540;-77
2023/03/17 14:49:53;;;;;;;16.00;5.20;;;;;;;;;;106905;1277;22536;-78
2023/03/17 14:52:22;;;;;;;13.20;6.00;;;;;;;;;;106839;1277;22624;-81
2023/03/17 14:54:52;;;;;;;14.50;6.70;;;;;;;;;;106750;1277;22556;-78
2023/03/17 14:57:25;;;;;;;17.70;6.30;;;;;;;;;;106943;1256;22487;-77
2023/03/17 14:59:57;;;;;;;12.30;5.40;;;;;;;;;;106869;1269;22534;-80
2023/03/17 15:02:33;;;;;;;17.20;6.90;;;;;;;;;;106897;1276;25322;-80
2023/03/17 15:05:17;;;;;;;14.00;6.30;;;;;;;;;;106786;1276;22654;-75
2023/03/17 15:07:44;;;;;;;16.90;6.90;;;;;;;;;;106745;1257;22527;-79
2023/03/17 15:10:15;;;;;;;18.00;6.90;;;;;;;;;;106703;1273;23870;-74
2023/03/17 15:12:45;;;;;;;14.40;5.70;;;;;;;;;;106918;1277;22547;-79
2023/03/17 15:15:27;;;;;;;14.30;5.70;;;;;;;;;;106869;1276;22528;-77
2023/03/17 15:17:55;;;;;;;19.90;6.50;;;;;;;;;;106813;1267;22535;-79
2023/03/17 15:20:27;;;;;;;18.30;7.50;;;;;;;;;;106850;1276;22511;-80
2023/03/17 15:22:54;;;;;;;19.90;8.30;;;;;;;;;;106859;1276;24374;-79
2023/03/17 15:25:32;;;;;;;19.10;7.40;;;;;;;;;;106881;1276;23864;-77
2023/03/17 15:27:59;;;;;;;18.30;7.80;;;;;;;;;;106783;1261;23922;-75
2023/03/17 15:30:26;;;;;;;29.60;7.50;;;;;;;;;;106803;1277;22539;-79
2023/03/17 15:33:03;;;;;;;20.00;7.80;;;;;;;;;;106833;1276;23904;-78
2023/03/17 15:35:29;;;;;;;20.30;8.80;;;;;;;;;;106815;1276;24253;-76
2023/03/17 15:37:57;;;;;;;20.80;9.20;;;;;;;;;;106919;1267;22521;-79
2023/03/17 15:46:26;;;;;;;16.80;6.30;;;;;;;;;;104761;1285;545842;-79
2023/03/17 15:48:53;;;;;;;14.90;6.80;;;;;;;;;;106362;1285;22541;-75
2023/03/17 15:51:21;;;;;;;17.10;5.90;;;;;;;;;;106259;1285;25563;-76
2023/03/17 15:53:47;;;;;;;14.10;6.00;;;;;;;;;;106334;1285;22536;-80
2023/03/17 15:56:19;;;;;;;15.60;6.40;;;;;;;;;;106304;1286;22641;-77
2023/03/17 15:58:48;;;;;;;15.60;7.00;;;;;;;;;;106323;1286;24040;-79
2023/03/17 16:01:15;;;;;;;21.70;6.90;;;;;;;;;;104545;1284;2579526;-78
2023/03/17 16:03:44;;;;;;;19.80;7.10;;;;;;;;;;106399;1284;22529;-80
2023/03/17 16:06:19;;;;;;;18.10;6.70;;;;;;;;;;106469;1263;23016;-75